createdAt,value
2018-07-22T00:00:09.430Z,99237.23
2018-07-22T00:02:37.728Z,99232.23
2018-07-22T00:05:05.722Z,99229.02
2018-07-22T00:07:33.565Z,99232.72
2018-07-22T00:10:01.397Z,99236.55
2018-07-22T00:12:29.265Z,99227.50
2018-07-22T00:14:57.184Z,99225.64
2018-07-22T00:17:25.077Z,99223.45
2018-07-22T00:19:52.996Z,99231.02
2018-07-22T00:22:20.890Z,99232.07
2018-07-22T00:24:48.731Z,99228.21
2018-07-22T00:27:16.582Z,99228.55
2018-07-22T00:29:44.481Z,99217.30
2018-07-22T00:32:12.338Z,99225.19
2018-07-22T00:34:40.200Z,99222.69
2018-07-22T00:37:08.059Z,99215.30
2018-07-22T00:39:35.946Z,99221.85
2018-07-22T00:42:03.837Z,99221.50
2018-07-22T00:44:31.683Z,99218.47
2018-07-22T00:46:59.533Z,99218.48
2018-07-22T00:49:27.393Z,99219.31
2018-07-22T00:51:55.250Z,99213.78
2018-07-22T00:54:23.111Z,99219.82
2018-07-22T00:56:50.982Z,99222.66
2018-07-22T00:59:18.819Z,99218.82
2018-07-22T01:01:46.677Z,99224.01
2018-07-22T01:04:14.513Z,99220.69
2018-07-22T01:06:42.345Z,99219.42
2018-07-22T01:09:11.258Z,99216.09
2018-07-22T01:11:39.374Z,99221.99
2018-07-22T01:14:07.754Z,99221.94
2018-07-22T01:16:35.690Z,99227.64
2018-07-22T01:19:03.789Z,99233.39
2018-07-22T01:21:31.953Z,99233.67
2018-07-22T01:24:00.170Z,99231.87
2018-07-22T01:26:28.045Z,99237.20
2018-07-22T01:28:55.864Z,99230.19
2018-07-22T01:31:23.693Z,99234.20
2018-07-22T01:33:51.607Z,99239.51
2018-07-22T01:36:19.466Z,99233.16
2018-07-22T01:38:47.280Z,99237.18
2018-07-22T01:41:15.105Z,99232.17
2018-07-22T01:43:42.981Z,99233.33
2018-07-22T01:46:10.829Z,99226.13
2018-07-22T01:48:38.737Z,99225.63
2018-07-22T01:51:06.656Z,99224.66
2018-07-22T01:53:34.478Z,99216.20
2018-07-22T01:56:02.361Z,99222.42
2018-07-22T01:58:30.210Z,99218.41
2018-07-22T02:00:58.052Z,99213.13
2018-07-22T02:03:25.854Z,99211.54
2018-07-22T02:05:53.716Z,99211.27
2018-07-22T02:08:21.572Z,99205.33
2018-07-22T02:10:49.510Z,99203.50
2018-07-22T02:13:17.680Z,99204.34
2018-07-22T02:15:45.502Z,99212.70
2018-07-22T02:18:13.343Z,99219.10
2018-07-22T02:20:41.206Z,99217.80
2018-07-22T02:23:09.032Z,99213.92
2018-07-22T02:25:36.864Z,99212.45
2018-07-22T02:28:04.735Z,99204.19
2018-07-22T02:30:32.561Z,99210.70
2018-07-22T02:33:00.384Z,99202.41
2018-07-22T02:35:28.289Z,99204.84
2018-07-22T02:37:56.157Z,99207.27
2018-07-22T02:40:23.969Z,99206.56
2018-07-22T02:42:51.833Z,99211.13
2018-07-22T02:45:19.662Z,99206.73
2018-07-22T02:47:47.545Z,99200.65
2018-07-22T02:50:15.443Z,99204.19
2018-07-22T02:52:43.306Z,99200.39
2018-07-22T02:55:11.156Z,99211.17
2018-07-22T02:57:38.988Z,99212.41
2018-07-22T03:00:06.931Z,99212.52
2018-07-22T03:02:34.769Z,99212.88
2018-07-22T03:05:02.709Z,99216.42
2018-07-22T03:07:30.522Z,99212.11
2018-07-22T03:09:58.397Z,99213.18
2018-07-22T03:12:26.285Z,99215.51
2018-07-22T03:14:54.130Z,99218.48
2018-07-22T03:17:21.978Z,99217.75
2018-07-22T03:19:49.849Z,99220.08
2018-07-22T03:22:17.690Z,99217.70
2018-07-22T03:24:45.506Z,99221.70
2018-07-22T03:27:13.386Z,99224.78
2018-07-22T03:29:41.225Z,99226.84
2018-07-22T03:32:09.045Z,99223.50
2018-07-22T03:34:36.870Z,99227.56
2018-07-22T03:37:04.743Z,99217.99
2018-07-22T03:39:32.571Z,99217.19
2018-07-22T03:42:00.433Z,99219.25
2018-07-22T03:44:28.274Z,99225.20
2018-07-22T03:46:56.172Z,99226.90
2018-07-22T03:49:24.014Z,99227.45
2018-07-22T03:51:51.862Z,99230.13
2018-07-22T03:54:19.765Z,99232.21
2018-07-22T03:56:47.605Z,99238.69
2018-07-22T03:59:15.437Z,99236.88
2018-07-22T04:01:43.277Z,99238.70
2018-07-22T04:04:11.133Z,99231.56
2018-07-22T04:06:38.985Z,99241.12
2018-07-22T04:09:08.382Z,99230.30
2018-07-22T04:11:36.253Z,99235.34
2018-07-22T04:14:04.209Z,99235.21
2018-07-22T04:16:32.077Z,99231.16
2018-07-22T04:18:59.984Z,99233.41
2018-07-22T04:21:27.950Z,99229.97
2018-07-22T04:23:55.784Z,99230.47
2018-07-22T04:26:23.731Z,99228.09
2018-07-22T04:28:51.669Z,99227.56
2018-07-22T04:31:19.665Z,99227.97
2018-07-22T04:33:47.542Z,99230.73
2018-07-22T04:36:15.413Z,99235.45
2018-07-22T04:38:43.242Z,99229.11
2018-07-22T04:41:11.074Z,99234.12
2018-07-22T04:43:39.021Z,99233.83
2018-07-22T04:46:06.902Z,99244.90
2018-07-22T04:48:34.745Z,99244.32
2018-07-22T04:51:02.631Z,99243.30
2018-07-22T04:53:30.483Z,99238.59
2018-07-22T04:55:58.382Z,99232.90
2018-07-22T04:58:26.243Z,99236.61
2018-07-22T05:00:54.081Z,99237.59
2018-07-22T05:03:21.902Z,99231.74
2018-07-22T05:05:49.706Z,99231.22
2018-07-22T05:08:17.561Z,99226.72
2018-07-22T05:10:45.401Z,99227.22
2018-07-22T05:13:13.838Z,99225.37
2018-07-22T05:15:42.378Z,99227.55
2018-07-22T05:18:10.369Z,99235.27
2018-07-22T05:20:39.037Z,99230.53
2018-07-22T05:23:07.014Z,99230.72
2018-07-22T05:25:34.857Z,99231.18
2018-07-22T05:28:02.956Z,99229.37
2018-07-22T05:30:30.920Z,99227.98
2018-07-22T05:32:58.856Z,99225.91
2018-07-22T05:35:26.693Z,99225.23
2018-07-22T05:37:54.570Z,99225.87
2018-07-22T05:40:22.409Z,99229.40
2018-07-22T05:42:50.273Z,99227.35
2018-07-22T05:45:18.138Z,99229.48
2018-07-22T05:47:46.014Z,99228.61
2018-07-22T05:50:13.925Z,99230.36
2018-07-22T05:52:41.756Z,99230.44
2018-07-22T05:55:09.634Z,99240.66
2018-07-22T05:57:37.524Z,99232.70
2018-07-22T06:00:06.766Z,99239.44
2018-07-22T06:02:34.770Z,99238.83
2018-07-22T06:05:02.679Z,99238.04
2018-07-22T06:07:30.538Z,99232.30
2018-07-22T06:09:58.382Z,99228.02
2018-07-22T06:12:26.225Z,99235.28
2018-07-22T06:14:54.120Z,99233.26
2018-07-22T06:17:21.949Z,99226.10
2018-07-22T06:19:49.793Z,99227.16
2018-07-22T06:22:17.620Z,99230.56
2018-07-22T06:24:45.437Z,99224.53
2018-07-22T06:27:13.299Z,99221.27
2018-07-22T06:29:41.147Z,99222.17
2018-07-22T06:32:09.033Z,99221.09
2018-07-22T06:34:36.871Z,99211.78
2018-07-22T06:37:04.778Z,99206.86
2018-07-22T06:39:32.651Z,99199.75
2018-07-22T06:42:00.527Z,99202.17
2018-07-22T06:44:28.365Z,99206.08
2018-07-22T06:46:56.289Z,99194.66
2018-07-22T06:49:24.138Z,99201.44
2018-07-22T06:51:51.978Z,99196.33
2018-07-22T06:54:19.839Z,99200.94
2018-07-22T06:56:47.665Z,99203.14
2018-07-22T06:59:15.501Z,99194.72
2018-07-22T07:01:43.366Z,99197.59
2018-07-22T07:04:11.239Z,99195.14
2018-07-22T07:06:39.078Z,99193.53
2018-07-22T07:09:09.853Z,99187.81
2018-07-22T07:11:38.031Z,99186.37
2018-07-22T07:14:05.985Z,99188.90
2018-07-22T07:16:33.893Z,99191.39
2018-07-22T07:19:01.758Z,99196.70
2018-07-22T07:21:29.638Z,99198.60
2018-07-22T07:23:57.494Z,99203.78
2018-07-22T07:26:25.438Z,99204.01
2018-07-22T07:28:53.381Z,99202.56
2018-07-22T07:31:21.294Z,99200.50
2018-07-22T07:33:49.135Z,99201.77
2018-07-22T07:36:16.979Z,99196.60
2018-07-22T07:38:44.814Z,99199.56
2018-07-22T07:41:12.669Z,99194.16
2018-07-22T07:43:40.521Z,99190.95
2018-07-22T07:46:08.617Z,99194.77
2018-07-22T07:48:36.440Z,99198.85
2018-07-22T07:51:04.323Z,99195.05
2018-07-22T07:53:32.183Z,99190.45
2018-07-22T07:55:59.981Z,99182.58
2018-07-22T07:58:27.838Z,99186.76
2018-07-22T08:00:55.686Z,99183.34
2018-07-22T08:03:23.557Z,99183.64
2018-07-22T08:05:51.494Z,99187.30
2018-07-22T08:08:19.400Z,99185.11
2018-07-22T08:10:47.233Z,99177.31
2018-07-22T08:13:15.037Z,99175.03
2018-07-22T08:15:42.893Z,99167.53
2018-07-22T08:18:10.716Z,99167.93
2018-07-22T08:20:38.605Z,99163.46
2018-07-22T08:23:06.486Z,99168.98
2018-07-22T08:25:34.393Z,99162.02
2018-07-22T08:28:02.259Z,99155.23
2018-07-22T08:30:30.133Z,99155.84
2018-07-22T08:32:57.976Z,99147.61
2018-07-22T08:35:25.821Z,99150.47
2018-07-22T08:37:53.690Z,99147.53
2018-07-22T08:40:21.517Z,99152.22
2018-07-22T08:42:49.377Z,99140.23
2018-07-22T08:45:17.285Z,99140.41
2018-07-22T08:47:45.201Z,99138.94
2018-07-22T08:50:13.071Z,99127.25
2018-07-22T08:52:40.957Z,99135.06
2018-07-22T08:55:08.945Z,99128.96
2018-07-22T08:57:36.818Z,99125.51
2018-07-22T09:00:05.639Z,99124.89
2018-07-22T09:02:33.502Z,99121.25
2018-07-22T09:05:01.373Z,99124.07
2018-07-22T09:07:29.234Z,99124.58
2018-07-22T09:09:57.114Z,99125.14
2018-07-22T09:12:24.996Z,99119.72
2018-07-22T09:14:52.914Z,99109.98
2018-07-22T09:17:20.774Z,99104.52
2018-07-22T09:19:48.632Z,99104.66
2018-07-22T09:22:16.502Z,99102.69
2018-07-22T09:24:44.362Z,99105.54
2018-07-22T09:27:12.161Z,99102.50
2018-07-22T09:29:40.010Z,99103.39
2018-07-22T09:32:07.921Z,99091.38
2018-07-22T09:34:35.771Z,99095.86
2018-07-22T09:37:03.625Z,99095.92
2018-07-22T09:39:31.461Z,99089.06
2018-07-22T09:41:59.293Z,99085.58
2018-07-22T09:44:27.152Z,99078.27
2018-07-22T09:46:54.985Z,99074.97
2018-07-22T09:49:22.898Z,99073.73
2018-07-22T09:51:50.750Z,99070.27
2018-07-22T09:54:18.658Z,99066.14
2018-07-22T09:56:46.478Z,99054.52
2018-07-22T09:59:14.378Z,99057.63
2018-07-22T10:01:42.186Z,99037.84
2018-07-22T10:04:10.865Z,99048.84
2018-07-22T10:06:38.733Z,99040.30
2018-07-22T10:09:08.625Z,99041.98
2018-07-22T10:11:36.447Z,99038.27
2018-07-22T10:14:04.617Z,99040.06
2018-07-22T10:16:32.464Z,99037.74
2018-07-22T10:19:00.313Z,99035.71
2018-07-22T10:21:28.152Z,99017.13
2018-07-22T10:23:56.000Z,99031.63
2018-07-22T10:26:23.857Z,99027.92
2018-07-22T10:28:51.738Z,99026.28
2018-07-22T10:31:19.646Z,99011.57
2018-07-22T10:33:47.521Z,99017.36
2018-07-22T10:36:15.443Z,99013.82
2018-07-22T10:38:43.347Z,99007.55
2018-07-22T10:41:11.193Z,99002.80
2018-07-22T10:43:39.065Z,98993.14
2018-07-22T10:46:06.932Z,98994.41
2018-07-22T10:48:34.778Z,99003.20
2018-07-22T10:51:02.748Z,98997.67
2018-07-22T10:53:30.521Z,98990.13
2018-07-22T10:55:58.402Z,98990.06
2018-07-22T10:58:26.238Z,98974.17
2018-07-22T11:00:54.090Z,98983.70
2018-07-22T11:03:21.987Z,98974.98
2018-07-22T11:05:49.813Z,98972.45
2018-07-22T11:08:17.681Z,98964.39
2018-07-22T11:10:45.535Z,98959.33
2018-07-22T11:13:13.354Z,98965.16
2018-07-22T11:15:41.212Z,98955.88
2018-07-22T11:18:09.028Z,98960.62
2018-07-22T11:20:36.902Z,98955.47
2018-07-22T11:23:04.801Z,98951.45
2018-07-22T11:25:32.675Z,98962.08
2018-07-22T11:28:00.532Z,98953.27
2018-07-22T11:30:28.369Z,98948.66
2018-07-22T11:32:56.218Z,98940.91
2018-07-22T11:35:24.077Z,98938.03
2018-07-22T11:37:51.941Z,98929.09
2018-07-22T11:40:19.817Z,98924.66
2018-07-22T11:42:47.713Z,98921.47
2018-07-22T11:45:15.581Z,98921.35
2018-07-22T11:47:43.408Z,98920.95
2018-07-22T11:50:11.285Z,98911.05
2018-07-22T11:52:39.121Z,98907.77
2018-07-22T11:55:06.996Z,98901.68
2018-07-22T11:57:34.818Z,98908.48
2018-07-22T12:00:02.754Z,98895.67
2018-07-22T12:02:30.726Z,98899.23
2018-07-22T12:04:58.553Z,98904.06
2018-07-22T12:07:26.389Z,98891.72
2018-07-22T12:09:54.198Z,98889.40
2018-07-22T12:12:22.057Z,98886.93
2018-07-22T12:14:49.915Z,98880.70
2018-07-22T12:17:17.845Z,98879.00
2018-07-22T12:19:45.773Z,98872.20
2018-07-22T12:22:13.940Z,98859.90
2018-07-22T12:24:41.787Z,98850.83
2018-07-22T12:27:09.621Z,98861.64
2018-07-22T12:29:37.481Z,98864.03
2018-07-22T12:32:05.391Z,98849.11
2018-07-22T12:34:33.278Z,98849.45
2018-07-22T12:37:01.163Z,98843.30
2018-07-22T12:39:29.051Z,98840.36
2018-07-22T12:41:56.901Z,98842.25
2018-07-22T12:44:24.765Z,98842.95
2018-07-22T12:46:52.642Z,98835.31
2018-07-22T12:49:20.480Z,98838.77
2018-07-22T12:51:48.358Z,98830.84
2018-07-22T12:54:16.197Z,98823.19
2018-07-22T12:56:44.016Z,98823.97
2018-07-22T12:59:11.878Z,98819.44
2018-07-22T13:01:39.701Z,98811.33
2018-07-22T13:04:07.553Z,98812.53
2018-07-22T13:06:35.777Z,98817.84
2018-07-22T13:09:05.916Z,98813.49
2018-07-22T13:11:33.765Z,98813.44
2018-07-22T13:14:01.596Z,98812.77
2018-07-22T13:16:29.453Z,98802.55
2018-07-22T13:18:57.361Z,98807.70
2018-07-22T13:21:25.186Z,98794.80
2018-07-22T13:23:53.028Z,98795.21
2018-07-22T13:26:20.967Z,98799.67
2018-07-22T13:28:48.852Z,98784.95
2018-07-22T13:31:16.704Z,98784.38
2018-07-22T13:33:44.575Z,98791.92
2018-07-22T13:36:12.425Z,98783.38
2018-07-22T13:38:40.285Z,98776.26
2018-07-22T13:41:08.198Z,98766.05
2018-07-22T13:43:36.058Z,98764.45
2018-07-22T13:46:04.029Z,98749.65
2018-07-22T13:48:31.901Z,98742.72
2018-07-22T13:50:59.755Z,98741.67
2018-07-22T13:53:27.619Z,98745.61
2018-07-22T13:55:55.597Z,98748.69
2018-07-22T13:58:23.463Z,98741.05
2018-07-22T14:00:51.385Z,98742.26
2018-07-22T14:03:19.269Z,98734.88
2018-07-22T14:05:47.117Z,98735.34
2018-07-22T14:08:14.986Z,98737.39
2018-07-22T14:10:42.805Z,98733.71
2018-07-22T14:13:10.675Z,98724.75
2018-07-22T14:15:38.604Z,98727.38
2018-07-22T14:18:06.485Z,98727.91
2018-07-22T14:20:34.396Z,98729.55
2018-07-22T14:23:02.254Z,98741.30
2018-07-22T14:25:30.113Z,98731.41
2018-07-22T14:27:57.995Z,98726.34
2018-07-22T14:30:25.837Z,98713.56
2018-07-22T14:32:53.739Z,98717.16
2018-07-22T14:35:21.631Z,98708.53
2018-07-22T14:37:49.472Z,98703.44
2018-07-22T14:40:17.413Z,98723.55
2018-07-22T14:42:46.909Z,98722.41
2018-07-22T14:45:14.787Z,98723.77
2018-07-22T14:47:42.656Z,98723.34
2018-07-22T14:50:10.516Z,98716.43
2018-07-22T14:52:38.361Z,98710.68
2018-07-22T14:55:06.207Z,98708.50
2018-07-22T14:57:34.058Z,98708.84
2018-07-22T15:00:01.953Z,98709.81
2018-07-22T15:02:29.818Z,98710.80
2018-07-22T15:04:57.659Z,98704.59
2018-07-22T15:07:25.505Z,98693.32
2018-07-22T15:09:53.315Z,98698.52
2018-07-22T15:12:21.216Z,98693.20
2018-07-22T15:14:49.047Z,98684.73
2018-07-22T15:17:16.974Z,98673.27
2018-07-22T15:19:44.973Z,98661.94
2018-07-22T15:22:13.322Z,98664.38
2018-07-22T15:24:41.481Z,98664.84
2018-07-22T15:27:09.654Z,98664.12
2018-07-22T15:29:37.929Z,98667.03
2018-07-22T15:32:06.309Z,98668.53
2018-07-22T15:34:34.509Z,98690.62
2018-07-22T15:37:02.760Z,98708.48
2018-07-22T15:39:31.021Z,98711.55
2018-07-22T15:41:58.865Z,98723.61
2018-07-22T15:44:26.733Z,98723.02
2018-07-22T15:46:54.617Z,98725.16
2018-07-22T15:49:22.441Z,98731.91
2018-07-22T15:51:50.286Z,98744.25
2018-07-22T15:54:18.141Z,98737.23
2018-07-22T15:56:45.968Z,98721.00
2018-07-22T15:59:13.778Z,98686.33
2018-07-22T16:01:41.660Z,98686.51
2018-07-22T16:04:09.452Z,98656.70
2018-07-22T16:06:37.278Z,98620.03
2018-07-22T16:09:08.354Z,98634.21
2018-07-22T16:11:36.203Z,98632.05
2018-07-22T16:14:04.194Z,98624.95
2018-07-22T16:16:32.090Z,98613.23
2018-07-22T16:18:59.919Z,98600.57
2018-07-22T16:21:27.789Z,98607.90
2018-07-22T16:23:55.628Z,98608.19
2018-07-22T16:26:23.487Z,98605.39
2018-07-22T16:28:51.354Z,98618.45
2018-07-22T16:31:19.285Z,98617.11
2018-07-22T16:33:47.122Z,98636.55
2018-07-22T16:36:14.993Z,98655.37
2018-07-22T16:38:42.822Z,98655.02
2018-07-22T16:41:10.688Z,98683.31
2018-07-22T16:43:38.529Z,98689.12
2018-07-22T16:46:06.376Z,98706.23
2018-07-22T16:48:34.301Z,98714.14
2018-07-22T16:51:02.141Z,98716.58
2018-07-22T16:53:30.079Z,98730.91
2018-07-22T16:55:57.900Z,98755.86
2018-07-22T16:58:25.765Z,98799.06
2018-07-22T17:00:53.609Z,98803.46
2018-07-22T17:03:21.475Z,98814.23
2018-07-22T17:05:49.329Z,98832.97
2018-07-22T17:08:17.146Z,98839.84
2018-07-22T17:10:45.018Z,98837.27
2018-07-22T17:13:12.865Z,98878.27
2018-07-22T17:15:40.726Z,98891.90
2018-07-22T17:18:08.637Z,98902.12
2018-07-22T17:20:36.470Z,98901.77
2018-07-22T17:23:04.330Z,98889.41
2018-07-22T17:25:32.242Z,98851.34
2018-07-22T17:28:00.062Z,98827.58
2018-07-22T17:30:27.910Z,98850.35
2018-07-22T17:32:55.753Z,98871.89
2018-07-22T17:35:23.584Z,98883.30
2018-07-22T17:37:51.429Z,98869.31
2018-07-22T17:40:19.284Z,98877.44
2018-07-22T17:42:47.143Z,98877.48
2018-07-22T17:45:15.004Z,98888.78
2018-07-22T17:47:42.817Z,98896.21
2018-07-22T17:50:10.658Z,98889.13
2018-07-22T17:52:38.473Z,98867.75
2018-07-22T17:55:06.360Z,98859.51
2018-07-22T17:57:34.250Z,98862.44
2018-07-22T18:00:02.121Z,98875.25
2018-07-22T18:02:29.954Z,98872.45
2018-07-22T18:04:57.777Z,98871.11
2018-07-22T18:07:25.689Z,98858.34
2018-07-22T18:09:53.605Z,98845.14
2018-07-22T18:12:21.489Z,98843.27
2018-07-22T18:14:49.437Z,98836.02
2018-07-22T18:17:17.424Z,98837.66
2018-07-22T18:19:45.328Z,98845.52
2018-07-22T18:22:13.224Z,98844.03
2018-07-22T18:24:41.097Z,98840.50
2018-07-22T18:27:08.997Z,98835.32
2018-07-22T18:29:36.879Z,98853.97
2018-07-22T18:32:04.796Z,98863.95
2018-07-22T18:34:32.693Z,98868.03
2018-07-22T18:37:00.700Z,98865.84
2018-07-22T18:39:28.587Z,98855.57
2018-07-22T18:41:56.534Z,98865.19
2018-07-22T18:44:24.457Z,98883.46
2018-07-22T18:46:52.362Z,98896.34
2018-07-22T18:49:20.288Z,98908.91
2018-07-22T18:51:48.199Z,98913.69
2018-07-22T18:54:16.106Z,98915.16
2018-07-22T18:56:44.114Z,98918.08
2018-07-22T18:59:12.008Z,98918.78
2018-07-22T19:01:39.909Z,98905.79
2018-07-22T19:04:07.815Z,98900.88
2018-07-22T19:06:35.747Z,98889.34
2018-07-22T19:09:05.240Z,98880.19
2018-07-22T19:11:33.181Z,98886.61
2018-07-22T19:14:01.053Z,98888.27
2018-07-22T19:16:28.974Z,98888.80
2018-07-22T19:18:56.878Z,98891.92
2018-07-22T19:21:24.805Z,98894.06
2018-07-22T19:23:52.673Z,98892.28
2018-07-22T19:26:20.581Z,98901.48
2018-07-22T19:28:48.685Z,98901.75
2018-07-22T19:31:16.589Z,98905.64
2018-07-22T19:33:44.545Z,98906.52
2018-07-22T19:36:12.464Z,98897.03
2018-07-22T19:38:40.340Z,98884.73
2018-07-22T19:41:08.259Z,98887.11
2018-07-22T19:43:36.187Z,98891.34
2018-07-22T19:46:04.091Z,98891.41
2018-07-22T19:48:31.965Z,98876.06
2018-07-22T19:50:59.869Z,98879.98
2018-07-22T19:53:27.786Z,98877.69
2018-07-22T19:55:55.742Z,98879.78
2018-07-22T19:58:23.656Z,98886.84
2018-07-22T20:00:51.585Z,98893.66
2018-07-22T20:03:19.534Z,98905.33
2018-07-22T20:05:47.417Z,98899.04
2018-07-22T20:08:15.353Z,98908.23
2018-07-22T20:10:43.261Z,98910.41
2018-07-22T20:13:11.238Z,98904.36
2018-07-22T20:15:39.182Z,98908.02
2018-07-22T20:18:07.135Z,98898.03
2018-07-22T20:20:35.070Z,98888.11
2018-07-22T20:23:02.949Z,98882.16
2018-07-22T20:25:30.866Z,98869.44
2018-07-22T20:27:58.805Z,98869.86
2018-07-22T20:30:26.692Z,98881.80
2018-07-22T20:32:54.597Z,98877.77
2018-07-22T20:35:22.510Z,98884.96
2018-07-22T20:37:50.429Z,98878.64
2018-07-22T20:40:18.344Z,98876.19
2018-07-22T20:42:46.257Z,98866.86
2018-07-22T20:45:14.215Z,98870.22
2018-07-22T20:47:42.225Z,98869.42
2018-07-22T20:50:10.131Z,98862.55
2018-07-22T20:52:38.103Z,98866.88
2018-07-22T20:55:05.997Z,98872.23
2018-07-22T20:57:33.930Z,98875.34
2018-07-22T21:00:01.814Z,98883.36
2018-07-22T21:02:29.760Z,98878.59
2018-07-22T21:04:57.660Z,98872.89
2018-07-22T21:07:25.602Z,98872.37
2018-07-22T21:09:53.517Z,98878.61
2018-07-22T21:12:43.290Z,98879.33
2018-07-22T21:15:11.502Z,98872.25
2018-07-22T21:17:39.456Z,98865.23
2018-07-22T21:20:07.465Z,98871.76
2018-07-22T21:22:35.441Z,98871.89
2018-07-22T21:25:03.537Z,98872.39
2018-07-22T21:27:31.446Z,98883.20
2018-07-22T21:29:59.427Z,98903.16
2018-07-22T21:32:27.300Z,98911.25
2018-07-22T21:34:55.219Z,98927.02
2018-07-22T21:37:23.089Z,98926.14
2018-07-22T21:39:51.042Z,98926.95
2018-07-22T21:42:18.954Z,98923.86
2018-07-22T21:44:46.853Z,98914.48
2018-07-22T21:47:14.750Z,98906.69
2018-07-22T21:49:42.671Z,98904.02
2018-07-22T21:52:10.574Z,98897.34
2018-07-22T21:54:38.502Z,98899.63
2018-07-22T21:57:06.434Z,98899.38
2018-07-22T21:59:34.342Z,98887.13
2018-07-22T22:02:02.259Z,98884.02
2018-07-22T22:04:30.229Z,98861.34
2018-07-22T22:06:58.165Z,98862.36
2018-07-22T22:09:26.046Z,98853.64
2018-07-22T22:11:54.048Z,98847.53
2018-07-22T22:14:22.006Z,98838.55
2018-07-22T22:16:49.969Z,98821.69
2018-07-22T22:19:17.909Z,98809.98
2018-07-22T22:21:45.832Z,98803.73
2018-07-22T22:24:13.778Z,98799.33
2018-07-22T22:26:41.701Z,98787.21
2018-07-22T22:29:09.921Z,98788.97
2018-07-22T22:31:38.053Z,98793.55
2018-07-22T22:34:06.022Z,98812.03
2018-07-22T22:36:34.330Z,98828.55
2018-07-22T22:39:02.309Z,98833.46
2018-07-22T22:41:30.253Z,98826.13
2018-07-22T22:43:58.201Z,98817.61
2018-07-22T22:46:26.082Z,98806.19
2018-07-22T22:48:54.010Z,98804.59
2018-07-22T22:51:22.074Z,98791.32
2018-07-22T22:53:49.972Z,98785.23
2018-07-22T22:56:17.893Z,98790.28
2018-07-22T22:58:57.029Z,98780.49
2018-07-22T23:01:25.018Z,98790.98
2018-07-22T23:03:52.929Z,98791.89
2018-07-22T23:06:20.873Z,98795.05
2018-07-22T23:08:48.814Z,98802.67
2018-07-22T23:11:16.753Z,98809.61
2018-07-22T23:13:44.680Z,98817.72
2018-07-22T23:16:13.026Z,98809.28
2018-07-22T23:18:41.302Z,98807.91
2018-07-22T23:21:09.202Z,98803.46
2018-07-22T23:23:37.429Z,98802.35
2018-07-22T23:26:05.814Z,98797.60
2018-07-22T23:28:33.937Z,98790.67
2018-07-22T23:31:01.836Z,98794.14
2018-07-22T23:33:30.138Z,98789.20
2018-07-22T23:35:58.020Z,98778.58
2018-07-22T23:41:22.936Z,98763.95
2018-07-22T23:43:51.398Z,98763.21
2018-07-22T23:46:19.674Z,98774.16
2018-07-22T23:48:48.051Z,98786.50
2018-07-22T23:51:16.529Z,98797.42
2018-07-22T23:53:44.838Z,98802.89
2018-07-22T23:56:13.282Z,98803.28
2018-07-22T23:58:41.554Z,98815.64
